Home PIREPS Pireps

Flight SAB2721

  • Submitted By: Carl Hermans
  • Departure Airport: Bruxelles National (EBBR)
  • Arrival Airport: airoport Geneve-Cointrin (LSGG)
  • Aircraft: B737-500 (OO-SAB)
  • Flight Time: 01.15
  • Date Submitted: 28/11/2016
  • Status: Accepted
Flight Details
Gross Revenue:
(117 load / € 0.00 per unit
€ 0.00
Fuel Cost:
(2070 fuel used @ 5.1 / unit)
€ 10,557.00

Additional Log Information:

View Log

Aircraft Used in flight is x737-800_v502 Brussels Airlines
17:15Flaps 3 Selected at 150ft and 0kts
17:15 Engine 1 Started
17:15 Engine 2 Started
17:15 Engine 3 Started
17:15 Engine 4 Started
17:15 Strobe Lights ON at 150 AGL
17:15 Taxi Lights ON at 150 AGL
17:15 Beacon Lights ON at 150 AGL
17:15 Brakes are On
17:16 Brakes are Released
17:18 Brakes are On
17:18 Brakes are Released
17:21 Brakes are On
17:21 Brakes are Released
17:24 Taxi Lights OFF at 170 AGL
17:25 You Took off @ 152 Knots and Flaps at Position 3
Departure Weather
EBBR 281550Z 07008KT CAVOK 02/M03 Q1031 NOSIGrn
17:25 You are Airborne and your Navigation Lights are off
17:25 Landing Gear Up @ 166 Knots and 220 Feet
17:25Flaps 1 Selected at 260ft and 183kts
17:25Flaps Retracted at 270ft and 189kts
17:25 Below 10000 feet you are not allowed to go over 250 knots
17:27 Above FL100 you need to switch of the landing lights
17:28 You exceeded maximum bank angle
18:14Flaps 1 Selected at 8400ft and 199kts
18:14Flaps 2 Selected at 8390ft and 200kts
18:15Flaps 3 Selected at 7650ft and 155kts
18:18Flaps 4 Selected at 6430ft and 145kts
18:20Flaps 5 Selected at 5720ft and 150kts
18:22 Landing Gear Down @ 141 Knots and 4520 Feet
18:23Flaps 6 Selected at 3450ft and 143kts
18:23Flaps 8 Selected at 3430ft and 143kts
18:26 Brakes are On
18:26 You Landed @ 136 Knots and with -500 Vertical Speed
Arrival Weather
LSGG 281650Z 03012KT 350V060 9999 BKN030 04/M02 Q1018 NOSIGrn
18:26Flaps 2 Selected at 1390ft and 11kts
18:26Flaps Retracted at 1390ft and 11kts
18:27 Taxi Lights ON at 1390 AGL
18:27 Brakes are Released
18:29 Brakes are On
18:30 Taxi Lights OFF at 1380 AGL
18:30 Navigation Lights ON at 1380 AGL
18:30 Navigation Lights OFF at 1380 AGL
18:30 Beacon Lights OFF at 1380 AGL
18:30 Engine 2 Stoped
18:30 Engine 1 Stoped
18:30 Brussels Bel-Track1.0.0.11

Route Map

Corporate About Us Our Team Vacancies Information Fleet Route Network Rules and Regulations Operations Flight Schedules Event Center Tours Partners IVAO Vatsim Acars dev FSCB

fb Users Online Belgium Michael Bitu,
2 Pilot(s) and 99 Guest(s) Online
CMS by phpVMS - Design by Crazycreatives.com - Copyright © 2018 - Brussels Airlines Virtual